createdAt,value
2023-01-22T00:00:42.479Z,101393.13
2023-01-22T00:02:05.489Z,101390.23
2023-01-22T00:03:08.512Z,101391.13
2023-01-22T00:04:11.300Z,101389.77
2023-01-22T00:05:14.071Z,101391.40
2023-01-22T00:06:16.829Z,101394.60
2023-01-22T00:07:19.772Z,101397.06
2023-01-22T00:08:22.601Z,101396.94
2023-01-22T00:09:25.369Z,101392.91
2023-01-22T00:10:28.453Z,101395.05
2023-01-22T00:11:31.323Z,101394.67
2023-01-22T00:12:34.887Z,101393.28
2023-01-22T00:13:37.753Z,101393.38
2023-01-22T00:14:40.802Z,101394.24
2023-01-22T00:15:43.646Z,101393.52
2023-01-22T00:16:46.431Z,101388.98
2023-01-22T00:17:49.127Z,101391.78
2023-01-22T00:18:51.935Z,101391.85
2023-01-22T00:19:54.732Z,101392.95
2023-01-22T00:20:57.501Z,101395.02
2023-01-22T00:22:00.230Z,101392.05
2023-01-22T00:23:03.030Z,101393.83
2023-01-22T00:24:05.947Z,101392.78
2023-01-22T00:25:11.511Z,101391.52
2023-01-22T00:26:15.645Z,101394.05
2023-01-22T00:27:19.716Z,101393.20
2023-01-22T00:28:23.675Z,101393.77
2023-01-22T00:29:26.423Z,101395.40
2023-01-22T00:30:29.563Z,101394.32
2023-01-22T00:31:34.923Z,101397.13
2023-01-22T00:32:37.815Z,101396.64
2023-01-22T00:33:40.699Z,101398.27
2023-01-22T00:34:45.385Z,101398.68
2023-01-22T00:35:48.237Z,101401.73
2023-01-22T00:36:51.350Z,101399.02
2023-01-22T00:37:54.066Z,101399.77
2023-01-22T00:38:56.858Z,101405.45
2023-01-22T00:40:00.292Z,101403.36
2023-01-22T00:41:04.289Z,101403.02
2023-01-22T00:42:07.051Z,101404.15
2023-01-22T00:43:09.800Z,101409.81
2023-01-22T00:44:12.765Z,101404.62
2023-01-22T00:45:15.962Z,101409.79
2023-01-22T00:46:18.739Z,101412.92
2023-01-22T00:47:21.534Z,101411.92
2023-01-22T00:48:24.279Z,101416.93
2023-01-22T00:49:27.075Z,101420.03
2023-01-22T00:50:29.883Z,101419.80
2023-01-22T00:51:33.687Z,101422.10
2023-01-22T00:52:37.867Z,101420.98
2023-01-22T00:53:41.522Z,101424.23
2023-01-22T00:54:45.722Z,101420.89
2023-01-22T00:55:55.493Z,101422.50
2023-01-22T00:56:58.581Z,101426.80
2023-01-22T00:58:01.428Z,101424.33
2023-01-22T00:59:10.554Z,101427.87
2023-01-22T01:00:18.586Z,101424.98
2023-01-22T01:01:22.103Z,101427.48
2023-01-22T01:02:24.875Z,101425.67
2023-01-22T01:03:30.535Z,101428.38
2023-01-22T01:04:33.954Z,101424.27
2023-01-22T01:05:36.751Z,101425.86
2023-01-22T01:06:39.503Z,101427.56
2023-01-22T01:07:42.594Z,101431.20
2023-01-22T01:08:45.683Z,101435.14
2023-01-22T01:09:49.678Z,101436.45
2023-01-22T01:10:56.788Z,101436.78
2023-01-22T01:12:00.558Z,101438.78
2023-01-22T01:13:03.451Z,101437.25
2023-01-22T01:14:06.212Z,101432.52
2023-01-22T01:15:09.159Z,101435.92
2023-01-22T01:16:13.613Z,101436.52
2023-01-22T01:17:16.427Z,101438.75
2023-01-22T01:18:20.479Z,101438.49
2023-01-22T01:19:23.239Z,101437.63
2023-01-22T01:20:26.790Z,101432.33
2023-01-22T01:21:30.361Z,101438.52
2023-01-22T01:22:33.131Z,101442.83
2023-01-22T01:23:36.202Z,101440.33
2023-01-22T01:24:38.919Z,101440.56
2023-01-22T01:25:42.487Z,101436.63
2023-01-22T01:26:46.125Z,101440.09
2023-01-22T01:27:48.910Z,101439.69
2023-01-22T01:28:54.679Z,101436.89
2023-01-22T01:29:57.996Z,101441.71
2023-01-22T01:31:05.193Z,101444.95
2023-01-22T01:32:07.988Z,101441.04
2023-01-22T01:33:10.743Z,101443.58
2023-01-22T01:34:13.916Z,101443.77
2023-01-22T01:35:16.690Z,101446.45
2023-01-22T01:36:35.478Z,101443.11
2023-01-22T01:37:44.276Z,101445.19
2023-01-22T01:38:47.159Z,101443.05
2023-01-22T01:39:52.693Z,101441.75
2023-01-22T01:40:56.140Z,101443.59
2023-01-22T01:41:58.899Z,101444.65
2023-01-22T01:43:01.825Z,101448.75
2023-01-22T01:44:15.278Z,101451.45
2023-01-22T01:45:27.110Z,101450.25
2023-01-22T01:46:29.944Z,101450.98
2023-01-22T01:47:34.603Z,101454.48
2023-01-22T01:48:48.740Z,101452.23
2023-01-22T01:49:52.747Z,101456.66
2023-01-22T01:51:05.640Z,101455.98
2023-01-22T01:52:10.669Z,101459.13
2023-01-22T01:53:13.715Z,101456.89
2023-01-22T01:54:17.057Z,101459.40
2023-01-22T01:55:24.087Z,101463.95
2023-01-22T01:56:30.251Z,101461.36
2023-01-22T01:57:34.135Z,101460.98
2023-01-22T01:58:37.995Z,101462.30
2023-01-22T01:59:41.743Z,101462.70
2023-01-22T02:00:44.780Z,101463.60
2023-01-22T02:01:50.008Z,101463.96
2023-01-22T02:02:52.867Z,101464.34
2023-01-22T02:03:55.654Z,101465.20
2023-01-22T02:04:58.871Z,101464.17
2023-01-22T02:06:02.024Z,101463.83
2023-01-22T02:07:06.059Z,101467.41
2023-01-22T02:08:09.560Z,101468.14
2023-01-22T02:09:12.636Z,101466.57
2023-01-22T02:10:15.768Z,101464.31
2023-01-22T02:11:19.285Z,101464.84
2023-01-22T02:12:22.555Z,101465.77
2023-01-22T02:13:28.612Z,101465.94
2023-01-22T02:14:33.252Z,101466.14
2023-01-22T02:15:37.180Z,101467.91
2023-01-22T02:16:40.042Z,101468.10
2023-01-22T02:17:43.029Z,101470.08
2023-01-22T02:18:46.008Z,101469.41
2023-01-22T02:19:48.879Z,101470.89
2023-01-22T02:21:01.192Z,101471.95
2023-01-22T02:22:06.573Z,101469.50
2023-01-22T02:23:09.376Z,101471.84
2023-01-22T02:24:16.870Z,101472.71
2023-01-22T02:25:19.648Z,101473.48
2023-01-22T02:26:22.428Z,101475.49
2023-01-22T02:27:26.372Z,101475.36
2023-01-22T02:28:29.924Z,101472.09
2023-01-22T02:29:33.359Z,101471.62
2023-01-22T02:30:36.202Z,101469.96
2023-01-22T02:31:39.970Z,101471.55
2023-01-22T02:32:43.380Z,101472.45
2023-01-22T02:33:46.243Z,101471.63
2023-01-22T02:34:50.669Z,101469.73
2023-01-22T02:35:53.375Z,101470.99
2023-01-22T02:36:56.187Z,101470.13
2023-01-22T02:37:58.919Z,101467.13
2023-01-22T02:39:03.060Z,101471.60
2023-01-22T02:40:06.251Z,101471.84
2023-01-22T02:41:09.144Z,101467.06
2023-01-22T02:42:12.165Z,101473.77
2023-01-22T02:43:16.912Z,101470.27
2023-01-22T02:44:20.063Z,101471.20
2023-01-22T02:45:23.728Z,101470.67
2023-01-22T02:46:27.881Z,101471.07
2023-01-22T02:47:30.633Z,101469.27
2023-01-22T02:48:33.421Z,101470.02
2023-01-22T02:49:36.205Z,101470.04
2023-01-22T02:50:39.187Z,101468.58
2023-01-22T02:51:42.025Z,101468.58
2023-01-22T02:52:44.866Z,101469.64
2023-01-22T02:53:48.556Z,101474.17
2023-01-22T02:54:52.509Z,101471.84
2023-01-22T02:55:55.305Z,101476.77
2023-01-22T02:56:58.408Z,101477.52
2023-01-22T02:58:01.212Z,101478.27
2023-01-22T02:59:04.518Z,101482.44
2023-01-22T03:00:08.063Z,101478.64
2023-01-22T03:01:22.052Z,101480.81
2023-01-22T03:02:26.612Z,101482.61
2023-01-22T03:03:29.610Z,101489.64
2023-01-22T03:04:32.609Z,101493.02
2023-01-22T03:05:35.442Z,101492.34
2023-01-22T03:06:41.541Z,101493.50
2023-01-22T03:07:45.316Z,101493.61
2023-01-22T03:08:49.561Z,101493.48
2023-01-22T03:09:52.876Z,101496.45
2023-01-22T03:10:58.869Z,101496.84
2023-01-22T03:12:03.420Z,101499.02
2023-01-22T03:13:26.869Z,101508.38
2023-01-22T03:14:49.056Z,101507.70
2023-01-22T03:16:11.606Z,101510.20
2023-01-22T03:17:33.259Z,101509.14
2023-01-22T03:18:55.328Z,101510.58
2023-01-22T03:20:17.123Z,101513.58
2023-01-22T03:21:20.424Z,101515.21
2023-01-22T03:22:23.315Z,101514.61
2023-01-22T03:23:28.134Z,101519.05
2023-01-22T03:24:30.916Z,101517.60
2023-01-22T03:25:33.696Z,101516.58
2023-01-22T03:26:36.491Z,101519.08
2023-01-22T03:27:59.404Z,101516.91
2023-01-22T03:29:02.237Z,101517.98
2023-01-22T03:30:05.169Z,101520.98
2023-01-22T03:31:10.330Z,101513.04
2023-01-22T03:32:13.618Z,101519.90
2023-01-22T03:33:16.665Z,101516.00
2023-01-22T03:34:20.732Z,101512.84
2023-01-22T03:35:23.616Z,101515.51
2023-01-22T03:36:38.373Z,101517.50
2023-01-22T03:37:42.283Z,101519.24
2023-01-22T03:38:46.109Z,101514.61
2023-01-22T03:39:52.074Z,101517.07
2023-01-22T03:41:05.533Z,101515.67
2023-01-22T03:42:08.399Z,101520.64
2023-01-22T03:43:11.358Z,101518.20
2023-01-22T03:44:14.495Z,101519.14
2023-01-22T03:45:18.185Z,101521.64
2023-01-22T03:46:21.405Z,101521.84
2023-01-22T03:47:30.016Z,101524.31
2023-01-22T03:48:33.341Z,101522.77
2023-01-22T03:49:36.140Z,101527.91
2023-01-22T03:50:40.830Z,101525.94
2023-01-22T03:51:44.096Z,101529.38
2023-01-22T03:52:47.075Z,101533.65
2023-01-22T03:53:50.283Z,101534.91
2023-01-22T03:54:53.626Z,101534.37
2023-01-22T03:55:57.575Z,101540.73
2023-01-22T03:57:00.735Z,101538.41
2023-01-22T03:58:06.699Z,101544.02
2023-01-22T03:59:10.840Z,101541.04
2023-01-22T04:00:14.785Z,101541.23
2023-01-22T04:01:20.442Z,101541.80
2023-01-22T04:02:23.390Z,101541.27
2023-01-22T04:03:36.649Z,101540.52
2023-01-22T04:04:39.777Z,101533.58
2023-01-22T04:05:42.537Z,101536.98
2023-01-22T04:06:45.271Z,101542.05
2023-01-22T04:07:51.349Z,101542.68
2023-01-22T04:08:58.000Z,101541.52
2023-01-22T04:10:06.381Z,101539.40
2023-01-22T04:11:09.875Z,101543.09
2023-01-22T04:12:13.191Z,101545.36
2023-01-22T04:13:17.578Z,101548.59
2023-01-22T04:14:21.790Z,101552.33
2023-01-22T04:15:31.981Z,101550.92
2023-01-22T04:16:37.456Z,101546.72
2023-01-22T04:17:59.229Z,101544.39
2023-01-22T04:19:24.797Z,101542.33
2023-01-22T04:20:40.739Z,101548.48
2023-01-22T04:21:54.858Z,101549.78
2023-01-22T04:22:57.742Z,101545.42
2023-01-22T04:24:00.521Z,101549.52
2023-01-22T04:25:03.626Z,101555.52
2023-01-22T04:26:07.110Z,101552.36
2023-01-22T04:27:10.153Z,101550.95
2023-01-22T04:28:14.787Z,101555.66
2023-01-22T04:29:19.003Z,101553.98
2023-01-22T04:30:21.889Z,101559.02
2023-01-22T04:31:32.775Z,101557.48
2023-01-22T04:32:55.710Z,101562.66
2023-01-22T04:34:04.977Z,101559.13
2023-01-22T04:35:13.694Z,101562.30
2023-01-22T04:36:26.491Z,101563.59
2023-01-22T04:37:31.696Z,101562.70
2023-01-22T04:38:34.502Z,101563.83
2023-01-22T04:39:37.431Z,101563.52
2023-01-22T04:40:40.685Z,101566.20
2023-01-22T04:41:43.539Z,101566.02
2023-01-22T04:42:47.031Z,101567.27
2023-01-22T04:43:50.687Z,101566.99
2023-01-22T04:44:54.282Z,101568.59
2023-01-22T04:45:57.623Z,101570.96
2023-01-22T04:47:05.188Z,101574.52
2023-01-22T04:48:11.333Z,101575.42
2023-01-22T04:49:15.755Z,101577.89
2023-01-22T04:50:20.974Z,101578.63
2023-01-22T04:51:24.060Z,101579.89
2023-01-22T04:52:27.863Z,101580.49
2023-01-22T04:53:31.849Z,101580.96
2023-01-22T04:54:34.710Z,101579.06
2023-01-22T04:55:39.039Z,101579.49
2023-01-22T04:56:44.774Z,101577.63
2023-01-22T04:57:48.939Z,101579.08
2023-01-22T04:58:52.255Z,101583.02
2023-01-22T04:59:56.584Z,101582.16
2023-01-22T05:00:59.540Z,101583.95
2023-01-22T05:02:03.018Z,101584.66
2023-01-22T05:03:07.266Z,101584.06
2023-01-22T05:04:10.354Z,101582.16
2023-01-22T05:05:13.206Z,101586.92
2023-01-22T05:06:16.045Z,101585.86
2023-01-22T05:07:18.890Z,101584.06
2023-01-22T05:08:21.767Z,101585.89
2023-01-22T05:09:25.928Z,101587.00
2023-01-22T05:10:31.131Z,101589.65
2023-01-22T05:11:34.413Z,101593.23
2023-01-22T05:12:38.676Z,101592.55
2023-01-22T05:13:41.742Z,101589.17
2023-01-22T05:14:44.510Z,101589.77
2023-01-22T05:15:47.403Z,101586.94
2023-01-22T05:16:50.931Z,101589.10
2023-01-22T05:17:53.725Z,101590.00
2023-01-22T05:18:56.857Z,101589.46
2023-01-22T05:20:00.566Z,101589.95
2023-01-22T05:21:03.568Z,101588.94
2023-01-22T05:22:07.672Z,101586.14
2023-01-22T05:23:10.470Z,101586.43
2023-01-22T05:24:13.289Z,101587.00
2023-01-22T05:25:16.188Z,101589.06
2023-01-22T05:26:19.655Z,101590.66
2023-01-22T05:27:33.299Z,101592.43
2023-01-22T05:28:40.680Z,101594.40
2023-01-22T05:29:54.995Z,101594.56
2023-01-22T05:31:13.035Z,101595.88
2023-01-22T05:32:34.787Z,101593.40
2023-01-22T05:33:42.881Z,101596.03
2023-01-22T05:34:47.388Z,101597.30
2023-01-22T05:36:00.232Z,101601.53
2023-01-22T05:37:03.530Z,101601.27
2023-01-22T05:38:07.698Z,101603.73
2023-01-22T05:39:10.459Z,101607.13
2023-01-22T05:40:13.454Z,101603.60
2023-01-22T05:41:16.294Z,101604.13
2023-01-22T05:42:19.580Z,101601.61
2023-01-22T05:43:24.404Z,101603.13
2023-01-22T05:44:33.505Z,101607.04
2023-01-22T05:45:37.492Z,101604.10
2023-01-22T05:46:57.991Z,101610.56
2023-01-22T05:48:00.776Z,101611.70
2023-01-22T05:49:26.407Z,101616.67
2023-01-22T05:50:32.140Z,101618.10
2023-01-22T05:51:44.214Z,101620.02
2023-01-22T05:52:47.343Z,101622.20
2023-01-22T05:53:50.587Z,101624.49
2023-01-22T05:54:53.931Z,101625.92
2023-01-22T05:56:00.016Z,101623.98
2023-01-22T05:57:03.375Z,101624.36
2023-01-22T05:58:06.481Z,101624.56
2023-01-22T05:59:11.629Z,101622.92
2023-01-22T06:00:16.108Z,101627.73
2023-01-22T06:01:23.091Z,101629.23
2023-01-22T06:02:27.640Z,101627.59
2023-01-22T06:03:30.641Z,101628.52
2023-01-22T06:04:33.528Z,101628.00
2023-01-22T06:05:37.003Z,101632.39
2023-01-22T06:06:42.263Z,101635.56
2023-01-22T06:07:45.564Z,101634.32
2023-01-22T06:08:51.504Z,101627.46
2023-01-22T06:09:56.102Z,101635.52
2023-01-22T06:11:03.751Z,101638.66
2023-01-22T06:12:07.016Z,101637.32
2023-01-22T06:13:10.344Z,101638.39
2023-01-22T06:14:13.142Z,101642.22
2023-01-22T06:15:15.968Z,101640.48
2023-01-22T06:16:21.742Z,101641.02
2023-01-22T06:17:30.451Z,101642.68
2023-01-22T06:18:37.126Z,101643.23
2023-01-22T06:19:39.978Z,101645.65
2023-01-22T06:20:43.711Z,101644.45
2023-01-22T06:21:46.688Z,101643.39
2023-01-22T06:22:50.919Z,101643.22
2023-01-22T06:23:53.782Z,101645.79
2023-01-22T06:24:56.708Z,101642.28
2023-01-22T06:26:03.331Z,101645.85
2023-01-22T06:27:06.192Z,101645.08
2023-01-22T06:28:15.232Z,101649.39
2023-01-22T06:29:19.604Z,101647.45
2023-01-22T06:30:23.761Z,101644.83
2023-01-22T06:31:26.801Z,101646.66
2023-01-22T06:32:29.630Z,101642.95
2023-01-22T06:33:35.415Z,101645.15
2023-01-22T06:34:39.784Z,101645.78
2023-01-22T06:35:42.612Z,101650.45
2023-01-22T06:36:45.396Z,101650.69
2023-01-22T06:37:50.459Z,101652.09
2023-01-22T06:38:53.328Z,101657.45
2023-01-22T06:40:05.245Z,101658.02
2023-01-22T06:41:16.795Z,101659.77
2023-01-22T06:42:20.510Z,101661.31
2023-01-22T06:43:23.945Z,101662.75
2023-01-22T06:44:27.228Z,101661.02
2023-01-22T06:45:30.143Z,101663.15
2023-01-22T06:46:36.347Z,101666.44
2023-01-22T06:47:45.650Z,101665.11
2023-01-22T06:48:49.985Z,101668.91
2023-01-22T06:49:52.833Z,101673.34
2023-01-22T06:50:59.217Z,101678.81
2023-01-22T06:52:02.033Z,101676.67
2023-01-22T06:53:04.837Z,101674.34
2023-01-22T06:54:07.990Z,101679.27
2023-01-22T06:55:10.888Z,101676.64
2023-01-22T06:56:14.279Z,101679.61
2023-01-22T06:57:17.186Z,101677.27
2023-01-22T06:58:20.353Z,101682.04
2023-01-22T06:59:23.117Z,101680.27
2023-01-22T07:00:26.012Z,101685.64
2023-01-22T07:01:28.836Z,101683.94
2023-01-22T07:02:31.739Z,101685.77
2023-01-22T07:03:34.692Z,101688.54
2023-01-22T07:04:37.521Z,101689.10
2023-01-22T07:05:40.340Z,101690.70
2023-01-22T07:06:44.429Z,101692.40
2023-01-22T07:07:47.838Z,101691.98
2023-01-22T07:08:50.635Z,101695.38
2023-01-22T07:09:53.538Z,101696.60
2023-01-22T07:10:56.324Z,101698.39
2023-01-22T07:12:01.237Z,101700.77
2023-01-22T07:13:04.448Z,101700.31
2023-01-22T07:14:07.226Z,101700.52
2023-01-22T07:15:10.128Z,101706.90
2023-01-22T07:16:13.194Z,101708.13
2023-01-22T07:17:15.941Z,101712.40
2023-01-22T07:18:21.024Z,101712.58
2023-01-22T07:19:23.914Z,101713.34
2023-01-22T07:20:26.678Z,101713.39
2023-01-22T07:21:30.690Z,101713.76
2023-01-22T07:22:33.455Z,101716.76
2023-01-22T07:23:36.187Z,101710.72
2023-01-22T07:24:38.977Z,101713.73
2023-01-22T07:25:42.039Z,101713.36
2023-01-22T07:26:46.385Z,101711.96
2023-01-22T07:27:49.178Z,101706.63
2023-01-22T07:28:51.999Z,101711.59
2023-01-22T07:29:55.293Z,101710.86
2023-01-22T07:30:58.192Z,101711.59
2023-01-22T07:32:01.425Z,101709.90
2023-01-22T07:33:04.213Z,101718.39
2023-01-22T07:34:07.708Z,101714.09
2023-01-22T07:35:10.486Z,101720.26
2023-01-22T07:36:13.338Z,101717.15
2023-01-22T07:37:16.071Z,101718.55
2023-01-22T07:38:18.813Z,101721.23
2023-01-22T07:39:21.519Z,101722.45
2023-01-22T07:40:24.565Z,101722.71
2023-01-22T07:41:27.795Z,101726.59
2023-01-22T07:42:30.600Z,101724.42
2023-01-22T07:43:33.662Z,101728.41
2023-01-22T07:44:40.403Z,101728.89
2023-01-22T07:45:43.364Z,101729.48
2023-01-22T07:46:46.153Z,101732.23
2023-01-22T07:47:54.623Z,101735.98
2023-01-22T07:48:57.352Z,101730.98
2023-01-22T07:50:00.188Z,101733.10
2023-01-22T07:51:04.129Z,101736.09
2023-01-22T07:52:07.004Z,101737.14
2023-01-22T07:53:11.898Z,101738.35
2023-01-22T07:54:16.894Z,101739.55
2023-01-22T07:55:21.079Z,101738.98
2023-01-22T07:56:23.873Z,101741.45
2023-01-22T07:57:26.621Z,101742.95
2023-01-22T07:58:29.329Z,101740.81
2023-01-22T07:59:32.177Z,101739.76
2023-01-22T08:00:35.531Z,101739.79
2023-01-22T08:01:38.424Z,101742.38
2023-01-22T08:02:42.292Z,101744.62
2023-01-22T08:03:45.440Z,101743.55
2023-01-22T08:04:48.201Z,101747.61
2023-01-22T08:05:51.040Z,101748.05
2023-01-22T08:06:53.942Z,101747.59
2023-01-22T08:07:56.727Z,101744.71
2023-01-22T08:08:59.666Z,101745.89
2023-01-22T08:10:03.110Z,101743.95
2023-01-22T08:11:05.963Z,101747.02
2023-01-22T08:12:09.132Z,101749.65
2023-01-22T08:13:11.889Z,101750.84
2023-01-22T08:14:14.628Z,101751.11
2023-01-22T08:15:17.465Z,101751.71
2023-01-22T08:16:21.245Z,101756.68
2023-01-22T08:17:24.093Z,101751.31
2023-01-22T08:18:26.992Z,101753.91
2023-01-22T08:19:29.827Z,101749.15
2023-01-22T08:20:32.654Z,101749.95
2023-01-22T08:21:35.363Z,101750.08
2023-01-22T08:22:38.172Z,101751.73
2023-01-22T08:23:41.052Z,101751.64
2023-01-22T08:24:43.792Z,101754.10
2023-01-22T08:25:46.676Z,101752.41
2023-01-22T08:26:49.670Z,101754.84
2023-01-22T08:27:52.425Z,101754.34
2023-01-22T08:28:55.187Z,101755.69
2023-01-22T08:29:57.953Z,101755.31
2023-01-22T08:31:01.797Z,101757.91
2023-01-22T08:32:04.736Z,101759.20
2023-01-22T08:33:07.574Z,101762.98
2023-01-22T08:34:10.361Z,101765.91
2023-01-22T08:35:13.634Z,101767.11
2023-01-22T08:36:17.030Z,101766.41
2023-01-22T08:37:23.655Z,101771.05
2023-01-22T08:38:26.460Z,101771.73
2023-01-22T08:39:29.351Z,101774.98
2023-01-22T08:40:32.120Z,101777.88
2023-01-22T08:41:34.898Z,101776.81
2023-01-22T08:42:37.953Z,101778.63
2023-01-22T08:43:40.742Z,101776.31
2023-01-22T08:44:43.563Z,101781.61
2023-01-22T08:45:48.390Z,101782.49
2023-01-22T08:46:51.254Z,101786.75
2023-01-22T08:47:58.934Z,101784.63
2023-01-22T08:49:04.409Z,101786.58
2023-01-22T08:50:07.306Z,101789.23
2023-01-22T08:51:10.969Z,101790.09
2023-01-22T08:52:13.756Z,101788.27
2023-01-22T08:53:16.499Z,101791.25
2023-01-22T08:54:19.218Z,101792.11
2023-01-22T08:55:21.995Z,101793.52
2023-01-22T08:56:24.733Z,101795.38
2023-01-22T08:57:27.477Z,101800.45
2023-01-22T08:58:30.230Z,101798.45
2023-01-22T08:59:33.014Z,101796.88
2023-01-22T09:00:35.793Z,101796.11
2023-01-22T09:01:38.578Z,101799.81
2023-01-22T09:02:41.300Z,101799.64
2023-01-22T09:03:44.175Z,101802.21
2023-01-22T09:04:47.012Z,101802.34
2023-01-22T09:05:51.038Z,101805.81
2023-01-22T09:06:53.874Z,101806.34
2023-01-22T09:07:56.637Z,101808.58
2023-01-22T09:09:01.724Z,101806.64
2023-01-22T09:10:08.093Z,101805.52
2023-01-22T09:11:10.872Z,101804.58
2023-01-22T09:12:13.623Z,101809.84
2023-01-22T09:13:16.373Z,101808.61
2023-01-22T09:14:19.113Z,101808.15
2023-01-22T09:15:21.858Z,101810.94
2023-01-22T09:16:25.094Z,101810.88
2023-01-22T09:17:28.241Z,101812.81
2023-01-22T09:18:31.148Z,101816.35
2023-01-22T09:19:33.928Z,101815.85
2023-01-22T09:20:36.673Z,101817.13
2023-01-22T09:21:39.981Z,101813.05
2023-01-22T09:22:44.763Z,101814.85
2023-01-22T09:23:47.490Z,101816.52
2023-01-22T09:24:50.607Z,101812.35
2023-01-22T09:25:53.323Z,101818.39
2023-01-22T09:26:57.324Z,101818.76
2023-01-22T09:28:00.719Z,101819.16
2023-01-22T09:29:05.947Z,101820.96
2023-01-22T09:30:09.761Z,101818.41
2023-01-22T09:31:13.456Z,101822.39
2023-01-22T09:32:16.235Z,101821.05
2023-01-22T09:33:18.994Z,101818.33
2023-01-22T09:34:21.794Z,101820.55
2023-01-22T09:35:24.623Z,101819.29
2023-01-22T09:36:27.731Z,101819.09
2023-01-22T09:37:30.494Z,101818.73
2023-01-22T09:38:34.057Z,101817.80
2023-01-22T09:39:37.061Z,101818.54
2023-01-22T09:40:48.641Z,101817.04
2023-01-22T09:41:53.151Z,101815.72
2023-01-22T09:43:06.428Z,101814.55
2023-01-22T09:44:20.798Z,101814.15
2023-01-22T09:45:25.402Z,101818.61
2023-01-22T09:46:39.429Z,101821.09
2023-01-22T09:47:50.154Z,101820.82
2023-01-22T09:48:56.525Z,101819.72
2023-01-22T09:50:07.810Z,101819.19
2023-01-22T09:51:14.164Z,101819.65
2023-01-22T09:53:37.257Z,101815.61
2023-01-22T09:54:40.482Z,101812.14
2023-01-22T09:55:48.692Z,101814.34
2023-01-22T09:56:52.620Z,101820.92
2023-01-22T09:57:56.363Z,101814.31
2023-01-22T09:59:00.370Z,101820.62
2023-01-22T10:00:03.622Z,101815.08
2023-01-22T10:01:14.685Z,101820.55
2023-01-22T10:02:20.508Z,101817.11
2023-01-22T10:03:41.041Z,101820.08
2023-01-22T10:04:48.237Z,101819.05
2023-01-22T10:05:53.667Z,101825.89
2023-01-22T10:06:57.917Z,101824.98
2023-01-22T10:08:04.863Z,101824.28
2023-01-22T10:09:10.729Z,101825.73
2023-01-22T10:10:19.999Z,101824.95
2023-01-22T10:11:23.010Z,101823.73
2023-01-22T10:12:29.369Z,101830.15
2023-01-22T10:13:33.726Z,101826.31
2023-01-22T10:14:36.506Z,101827.50
2023-01-22T10:15:39.273Z,101828.58
2023-01-22T10:16:42.081Z,101826.98
2023-01-22T10:17:45.016Z,101821.77
2023-01-22T10:18:50.933Z,101821.63
2023-01-22T10:19:58.871Z,101822.08
2023-01-22T10:21:04.598Z,101823.11
2023-01-22T10:22:11.937Z,101824.58
2023-01-22T10:23:18.441Z,101825.81
2023-01-22T10:24:21.207Z,101820.11
2023-01-22T10:25:24.005Z,101818.48
2023-01-22T10:26:45.654Z,101816.61
2023-01-22T10:27:56.801Z,101819.21
2023-01-22T10:29:05.220Z,101819.21
2023-01-22T10:30:17.270Z,101820.98
2023-01-22T10:31:31.060Z,101818.58
2023-01-22T10:32:34.039Z,101821.48
2023-01-22T10:33:38.939Z,101821.41
2023-01-22T10:34:41.762Z,101818.91
2023-01-22T10:35:48.782Z,101815.74
2023-01-22T10:36:52.624Z,101815.91
2023-01-22T10:37:56.473Z,101818.44
2023-01-22T10:39:04.732Z,101820.41
2023-01-22T10:40:20.365Z,101821.95
2023-01-22T10:41:23.336Z,101819.98
2023-01-22T10:42:27.822Z,101819.51
2023-01-22T10:43:38.021Z,101814.61
2023-01-22T10:44:41.403Z,101815.08
2023-01-22T10:45:52.132Z,101813.10
2023-01-22T10:46:55.637Z,101811.84
2023-01-22T10:48:14.984Z,101814.39
2023-01-22T10:49:27.879Z,101812.55
2023-01-22T10:50:30.666Z,101815.64
2023-01-22T10:51:38.723Z,101815.88
2023-01-22T10:52:45.203Z,101812.55
2023-01-22T10:53:50.210Z,101808.46
2023-01-22T10:54:57.992Z,101807.86
2023-01-22T10:56:02.355Z,101804.92
2023-01-22T10:57:20.896Z,101805.35
2023-01-22T10:58:24.776Z,101806.52
2023-01-22T10:59:29.716Z,101803.08
2023-01-22T11:00:50.952Z,101806.69
2023-01-22T11:01:59.268Z,101803.55
2023-01-22T11:03:13.591Z,101804.80
2023-01-22T11:04:21.748Z,101802.08
2023-01-22T11:05:31.871Z,101802.17
2023-01-22T11:06:39.415Z,101805.23
2023-01-22T11:07:42.986Z,101801.23
2023-01-22T11:08:56.942Z,101799.70
2023-01-22T11:10:19.347Z,101801.07
2023-01-22T11:11:49.680Z,101801.64
2023-01-22T11:12:57.541Z,101804.90
2023-01-22T11:14:04.663Z,101809.05
2023-01-22T11:15:13.640Z,101807.38
2023-01-22T11:16:23.852Z,101808.22
2023-01-22T11:17:32.707Z,101808.18
2023-01-22T11:18:37.107Z,101808.48
2023-01-22T11:19:43.239Z,101807.29
2023-01-22T11:20:53.303Z,101811.34
2023-01-22T11:21:56.451Z,101806.50
2023-01-22T11:23:19.088Z,101807.33
2023-01-22T11:24:29.369Z,101807.02
2023-01-22T11:25:37.246Z,101806.63
2023-01-22T11:26:46.117Z,101803.66
2023-01-22T11:27:55.102Z,101803.66
2023-01-22T11:29:11.667Z,101806.27
2023-01-22T11:30:32.895Z,101804.65
2023-01-22T11:31:50.102Z,101806.96
2023-01-22T11:33:08.506Z,101801.62
2023-01-22T11:34:11.278Z,101805.63
2023-01-22T11:35:14.103Z,101800.52
2023-01-22T11:36:22.664Z,101798.91
2023-01-22T11:37:45.812Z,101798.73
2023-01-22T11:39:03.028Z,101799.26
2023-01-22T11:40:05.802Z,101800.49
2023-01-22T11:41:35.021Z,101799.33
2023-01-22T11:42:57.232Z,101796.42
2023-01-22T11:43:59.953Z,101797.12
2023-01-22T11:45:08.866Z,101795.43
2023-01-22T11:46:11.650Z,101794.20
2023-01-22T11:47:26.841Z,101792.29
2023-01-22T11:48:41.113Z,101796.39
2023-01-22T11:49:43.905Z,101794.39
2023-01-22T11:50:49.903Z,101794.27
2023-01-22T11:51:52.658Z,101793.09
2023-01-22T11:53:05.257Z,101794.07
2023-01-22T11:54:29.229Z,101793.63
2023-01-22T11:55:31.952Z,101790.13
2023-01-22T11:56:53.585Z,101792.42
2023-01-22T11:58:16.566Z,101790.42
2023-01-22T11:59:38.502Z,101791.23
2023-01-22T12:00:44.537Z,101793.96
2023-01-22T12:01:58.350Z,101788.63
2023-01-22T12:03:01.133Z,101788.35
2023-01-22T12:04:04.369Z,101793.15
2023-01-22T12:05:22.142Z,101790.82
2023-01-22T12:06:35.537Z,101792.59
2023-01-22T12:07:57.296Z,101794.38
2023-01-22T12:09:00.039Z,101791.63
2023-01-22T12:10:15.688Z,101795.88
2023-01-22T12:11:24.754Z,101795.91
2023-01-22T12:12:35.705Z,101798.94
2023-01-22T12:13:50.554Z,101802.45
2023-01-22T12:14:58.175Z,101801.39
2023-01-22T12:16:12.934Z,101798.71
2023-01-22T12:17:37.386Z,101801.25
2023-01-22T12:18:40.114Z,101802.21
2023-01-22T12:19:51.758Z,101801.89
2023-01-22T12:21:06.602Z,101801.95
2023-01-22T12:22:24.406Z,101802.20
2023-01-22T12:23:33.978Z,101803.95
2023-01-22T12:24:36.699Z,101803.79
2023-01-22T12:25:45.537Z,101804.52
2023-01-22T12:26:52.350Z,101801.48
2023-01-22T12:28:00.135Z,101805.85
2023-01-22T12:29:06.628Z,101805.83
2023-01-22T12:30:31.147Z,101805.79